Time;durP1;ratioP1;P1;durP2;ratioP2;P2;SDS_P1;SDS_P2;PMS_P1;PMS_P2;Temp;Humidity;BMP_temperature;BMP_pressure;BME280_temperature;BME280_humidity;BME280_pressure;Samples;Min_cycle;Max_cycle;Signal;HPM_P1;HPM_P2
2023/04/23 00:02:15;;;;;;;13.77;6.85;;;;;;;14.30;50.07;97774.03;4441695;32;20365;-80
2023/04/23 00:04:49;;;;;;;15.93;6.70;;;;;;;14.69;49.48;97781.09;4427792;32;20420;-80
2023/04/23 00:07:18;;;;;;;13.45;5.53;;;;;;;14.91;49.21;97771.00;4427625;32;20089;-80
2023/04/23 00:09:45;;;;;;;13.73;6.37;;;;;;;15.06;48.45;97766.56;4427834;32;20160;-80
2023/04/23 00:12:13;;;;;;;12.45;6.62;;;;;;;15.57;46.93;97769.25;4441391;32;20179;-80
2023/04/23 00:14:40;;;;;;;16.73;6.60;;;;;;;15.46;47.06;97759.59;4441250;32;20085;-80
2023/04/23 00:17:07;;;;;;;13.13;6.70;;;;;;;15.08;47.85;97766.47;4441593;32;20081;-80
2023/04/23 00:19:34;;;;;;;13.65;6.72;;;;;;;14.55;49.30;97762.97;4441156;32;20455;-79
2023/04/23 00:22:01;;;;;;;13.23;6.18;;;;;;;14.51;49.00;97764.91;4441595;32;20151;-80
2023/04/23 00:24:30;;;;;;;14.32;6.57;;;;;;;14.55;48.74;97762.97;4441484;32;20103;-80
2023/04/23 00:26:57;;;;;;;12.13;6.10;;;;;;;14.56;49.05;97765.44;4441229;32;20148;-80
2023/04/23 00:29:24;;;;;;;13.40;6.05;;;;;;;14.83;48.66;97762.03;4441971;32;20501;-80
2023/04/23 00:31:51;;;;;;;13.30;6.53;;;;;;;14.28;50.06;97753.34;4440490;32;20120;-80
2023/04/23 00:34:18;;;;;;;14.57;7.32;;;;;;;14.84;49.26;97756.75;4440960;32;20456;-80
2023/04/23 00:36:45;;;;;;;14.38;6.95;;;;;;;14.79;48.85;97752.78;4441486;32;20138;-80
2023/04/23 00:39:12;;;;;;;13.15;6.87;;;;;;;14.91;48.25;97759.78;4441359;32;20116;-80
2023/04/23 00:41:40;;;;;;;13.48;6.00;;;;;;;14.13;50.39;97759.47;4441125;32;20142;-80
2023/04/23 00:44:11;;;;;;;11.35;6.22;;;;;;;13.96;50.98;97759.69;4427559;32;20458;-80
2023/04/23 00:46:38;;;;;;;12.60;6.20;;;;;;;13.72;52.07;97759.44;4441543;32;20139;-80
2023/04/23 00:49:05;;;;;;;14.60;6.18;;;;;;;13.56;52.58;97755.13;4441000;32;20147;-80
2023/04/23 00:51:32;;;;;;;12.63;6.25;;;;;;;13.11;53.99;97755.22;4440403;32;20565;-80
2023/04/23 00:53:59;;;;;;;13.23;6.65;;;;;;;13.39;52.63;97747.50;4441394;32;20104;-80
2023/04/23 00:56:27;;;;;;;14.55;6.93;;;;;;;13.59;53.05;97746.34;4440939;32;20085;-80
2023/04/23 00:58:54;;;;;;;14.45;6.55;;;;;;;14.24;51.29;97751.03;4441282;32;20108;-80
2023/04/23 01:01:22;;;;;;;14.38;6.75;;;;;;;14.52;50.03;97745.81;4439297;32;20416;-80
2023/04/23 01:03:51;;;;;;;15.25;6.93;;;;;;;14.60;48.93;97743.56;4440892;32;20089;-80
2023/04/23 01:06:19;;;;;;;13.90;6.32;;;;;;;14.44;49.34;97738.50;4441346;32;20492;-80
2023/04/23 01:08:46;;;;;;;12.10;6.18;;;;;;;13.89;50.59;97738.47;4440998;32;20112;-79
2023/04/23 01:11:14;;;;;;;12.95;6.82;;;;;;;14.31;50.24;97741.94;4441125;32;20085;-80
2023/04/23 01:13:42;;;;;;;13.68;6.75;;;;;;;14.25;49.85;97750.97;4427429;32;20138;-80
2023/04/23 01:16:09;;;;;;;14.13;7.05;;;;;;;14.40;49.28;97743.97;4440913;32;20077;-80
2023/04/23 01:18:36;;;;;;;13.77;7.37;;;;;;;14.20;49.80;97740.03;4427361;32;20148;-80
2023/04/23 01:21:04;;;;;;;13.05;6.40;;;;;;;14.45;48.98;97742.75;4441306;32;20085;-80
2023/04/23 01:23:31;;;;;;;14.55;6.78;;;;;;;15.73;45.70;97741.28;4440658;32;20089;-80
2023/04/23 01:25:58;;;;;;;14.70;6.95;;;;;;;15.32;46.30;97741.47;4440115;32;20073;-80
2023/04/23 01:28:25;;;;;;;13.48;6.55;;;;;;;14.31;48.56;97741.94;4441247;32;20151;-80
2023/04/23 01:30:52;;;;;;;15.40;6.95;;;;;;;14.32;49.52;97735.81;4426985;32;20420;-79
2023/04/23 01:33:19;;;;;;;13.52;6.62;;;;;;;14.51;48.73;97738.97;4441057;32;20089;-80
2023/04/23 01:35:48;;;;;;;14.00;7.18;;;;;;;14.43;49.11;97736.81;4441086;32;20498;-80
2023/04/23 01:38:16;;;;;;;16.45;6.78;;;;;;;14.30;49.77;97733.31;4439478;32;20116;-80
2023/04/23 01:40:43;;;;;;;13.65;6.82;;;;;;;14.19;49.96;97738.34;4427391;32;20124;-80
2023/04/23 01:43:10;;;;;;;15.23;6.90;;;;;;;13.10;53.33;97731.06;4440997;32;20093;-80
2023/04/23 01:45:37;;;;;;;17.55;7.85;;;;;;;12.78;54.34;97726.91;4440740;32;20078;-80
2023/04/23 01:48:04;;;;;;;17.12;7.00;;;;;;;10.93;62.46;97728.88;4441001;32;20150;-79
2023/04/23 01:50:30;;;;;;;15.43;6.95;;;;;;;13.31;53.19;97732.44;4440045;32;20109;-79
2023/04/23 01:52:57;;;;;;;12.70;6.72;;;;;;;13.37;52.04;97733.81;4439589;32;20089;-80
2023/04/23 01:55:25;;;;;;;11.88;6.07;;;;;;;12.77;51.96;97731.25;4440970;32;20500;-80
2023/04/23 01:57:51;;;;;;;13.23;5.75;;;;;;;13.87;48.77;97738.56;4440735;32;20153;-79
2023/04/23 02:00:19;;;;;;;11.05;5.85;;;;;;;12.93;50.46;97737.19;4440972;32;20440;-80
2023/04/23 02:02:46;;;;;;;12.32;6.30;;;;;;;12.55;51.28;97731.59;4440879;32;20146;-80
2023/04/23 02:05:17;;;;;;;12.48;6.10;;;;;;;10.52;59.45;97736.87;4440591;32;20155;-80
2023/04/23 02:07:46;;;;;;;13.30;6.68;;;;;;;12.19;53.94;97731.84;4439913;32;20159;-80
2023/04/23 02:10:13;;;;;;;13.85;6.25;;;;;;;11.65;54.56;97735.59;4440990;32;20452;-80
2023/04/23 02:12:40;;;;;;;12.37;6.07;;;;;;;12.24;52.73;97735.03;4439941;32;20089;-80
2023/04/23 02:15:08;;;;;;;15.52;6.47;;;;;;;13.43;49.42;97737.81;4440797;32;20069;-80
2023/04/23 02:17:35;;;;;;;12.70;6.43;;;;;;;12.91;50.70;97733.88;4440820;32;20159;-80
2023/04/23 02:20:03;;;;;;;13.20;6.80;;;;;;;13.32;50.11;97728.91;4440606;32;20452;-79
2023/04/23 02:22:30;;;;;;;16.58;6.82;;;;;;;12.77;51.48;97733.00;4427011;32;20485;-80
2023/04/23 02:24:58;;;;;;;13.07;6.22;;;;;;;13.31;50.86;97734.19;4440716;32;20133;-80
2023/04/23 02:27:26;;;;;;;13.60;6.97;;;;;;;13.20;51.08;97732.22;4440472;32;20108;-79
2023/04/23 02:29:53;;;;;;;15.68;7.65;;;;;;;13.17;51.44;97731.53;4440958;32;20093;-80
2023/04/23 02:32:20;;;;;;;15.80;7.70;;;;;;;13.43;51.24;97732.63;4440785;32;20081;-80
2023/04/23 02:34:47;;;;;;;14.27;7.85;;;;;;;14.02;49.82;97731.59;4440315;32;20077;-80
2023/04/23 02:37:13;;;;;;;14.05;7.57;;;;;;;13.59;50.49;97730.78;4440653;32;20101;-80
2023/04/23 02:39:40;;;;;;;17.60;8.38;;;;;;;13.66;50.35;97718.31;4440585;32;20098;-80
2023/04/23 02:42:07;;;;;;;16.83;8.32;;;;;;;13.57;51.24;97720.50;4440344;32;20085;-80
2023/04/23 02:44:34;;;;;;;15.43;7.75;;;;;;;14.42;48.45;97724.75;4440540;32;20074;-80
2023/04/23 02:47:01;;;;;;;15.18;7.97;;;;;;;14.61;47.50;97719.28;4440271;32;20097;-79
2023/04/23 02:49:29;;;;;;;18.10;8.98;;;;;;;14.15;48.82;97714.37;4439470;32;20162;-80
2023/04/23 02:51:56;;;;;;;15.88;7.70;;;;;;;13.74;50.03;97716.91;4440603;32;20081;-80
2023/04/23 02:54:23;;;;;;;14.95;7.80;;;;;;;14.03;49.28;97716.88;4440166;32;20077;-79
2023/04/23 02:56:50;;;;;;;15.00;7.45;;;;;;;14.37;47.58;97716.44;4440541;32;20109;-80
2023/04/23 02:59:17;;;;;;;15.10;6.57;;;;;;;13.48;49.77;97718.47;4440384;32;20093;-80
2023/04/23 03:01:44;;;;;;;16.58;7.30;;;;;;;14.14;47.78;97719.63;4440098;32;20093;-79
2023/04/23 03:04:11;;;;;;;16.70;6.50;;;;;;;13.45;49.65;97717.81;4440320;32;20429;-80
2023/04/23 03:06:38;;;;;;;14.82;6.30;;;;;;;12.43;52.23;97717.56;4440469;32;20112;-80
2023/04/23 03:09:05;;;;;;;15.90;5.50;;;;;;;12.68;52.28;97714.47;4440151;32;20155;-79
2023/04/23 03:11:32;;;;;;;17.27;6.87;;;;;;;12.50;52.44;97712.06;4440220;32;20116;-80
2023/04/23 03:13:59;;;;;;;17.65;7.12;;;;;;;11.93;55.12;97712.59;4440315;32;20403;-80
2023/04/23 03:16:28;;;;;;;16.67;7.03;;;;;;;12.48;53.63;97716.50;4439986;32;20230;-79
2023/04/23 03:18:55;;;;;;;15.35;7.25;;;;;;;12.28;54.86;97710.66;4426508;32;20105;-80
2023/04/23 03:21:22;;;;;;;16.42;7.30;;;;;;;12.48;54.93;97708.75;4440322;32;20116;-80
2023/04/23 03:23:48;;;;;;;13.70;6.85;;;;;;;13.70;51.18;97702.44;4438837;32;20143;-80
2023/04/23 03:26:15;;;;;;;12.80;6.30;;;;;;;13.55;51.74;97711.16;4440085;32;20105;-80
2023/04/23 03:28:42;;;;;;;15.02;6.72;;;;;;;13.90;49.39;97706.44;4440119;32;20090;-80
2023/04/23 03:31:09;;;;;;;15.60;6.05;;;;;;;13.38;50.58;97706.97;4439884;32;20084;-80
2023/04/23 03:33:36;;;;;;;13.35;6.00;;;;;;;12.70;52.13;97707.44;4439841;32;20074;-80
2023/04/23 03:36:04;;;;;;;12.35;6.85;;;;;;;12.84;52.10;97701.47;4439780;32;20085;-79
2023/04/23 03:38:31;;;;;;;16.02;7.55;;;;;;;13.75;49.62;97700.44;4439975;32;20109;-80
2023/04/23 03:40:58;;;;;;;15.27;7.55;;;;;;;12.53;53.66;97698.94;4440043;32;20085;-80
2023/04/23 03:43:25;;;;;;;15.13;7.30;;;;;;;13.14;52.18;97700.63;4439458;32;20086;-80
2023/04/23 03:45:52;;;;;;;14.60;7.82;;;;;;;13.04;51.67;97693.38;4439947;32;20159;-80
2023/04/23 03:48:20;;;;;;;14.48;7.10;;;;;;;13.15;51.51;97705.72;4439842;32;20168;-80
2023/04/23 03:50:47;;;;;;;14.90;7.45;;;;;;;12.54;52.37;97704.03;4439485;32;20089;-79
2023/04/23 03:53:16;;;;;;;13.90;6.72;;;;;;;12.59;51.99;97696.88;4439663;32;20136;-80
2023/04/23 03:55:43;;;;;;;13.23;6.93;;;;;;;12.96;50.78;97700.75;4439780;32;20107;-80
2023/04/23 03:58:10;;;;;;;15.30;7.95;;;;;;;13.62;49.49;97691.75;4439274;32;20097;-80
2023/04/23 04:00:37;;;;;;;14.73;7.10;;;;;;;13.65;49.24;97701.91;4439770;32;20489;-80
2023/04/23 04:03:04;;;;;;;13.48;6.20;;;;;;;13.62;49.82;97702.09;4439596;32;20142;-80
2023/04/23 04:05:31;;;;;;;13.55;6.35;;;;;;;13.19;50.78;97699.47;4439372;32;20150;-80
2023/04/23 04:07:58;;;;;;;12.57;5.55;;;;;;;13.49;49.76;97707.16;4439465;32;20116;-80
2023/04/23 04:10:25;;;;;;;21.80;6.68;;;;;;;13.45;49.76;97699.69;4439655;32;20081;-80
2023/04/23 04:12:54;;;;;;;13.18;6.10;;;;;;;13.40;50.66;97705.16;4439011;32;20077;-80
2023/04/23 04:15:21;;;;;;;15.98;6.28;;;;;;;13.47;51.28;97701.25;4439378;32;20143;-80
2023/04/23 04:17:47;;;;;;;11.73;5.78;;;;;;;13.93;50.95;97708.84;4439520;32;20109;-80
2023/04/23 04:20:14;;;;;;;10.20;5.30;;;;;;;14.35;49.84;97710.50;4439193;32;20082;-80
2023/04/23 04:22:41;;;;;;;12.27;5.85;;;;;;;14.56;49.16;97710.94;4439301;32;20155;-80
2023/04/23 04:25:08;;;;;;;11.60;5.90;;;;;;;14.68;48.74;97707.56;4439027;32;20110;-80
2023/04/23 04:27:36;;;;;;;14.52;6.15;;;;;;;15.66;46.62;97718.44;4439335;32;20159;-80
2023/04/23 04:30:04;;;;;;;11.20;5.72;;;;;;;16.18;45.75;97718.25;4439281;32;20337;-80
2023/04/23 04:32:31;;;;;;;13.65;6.15;;;;;;;16.61;44.90;97712.56;4438935;32;20085;-80
2023/04/23 04:34:58;;;;;;;12.02;6.00;;;;;;;16.92;44.48;97719.84;4440081;32;20497;-80
2023/04/23 04:37:26;;;;;;;14.23;7.05;;;;;;;16.52;44.89;97721.87;4441619;32;20154;-81
2023/04/23 04:39:54;;;;;;;11.63;6.28;;;;;;;16.86;43.82;97715.06;4440967;32;20085;-80
2023/04/23 04:42:20;;;;;;;15.38;6.60;;;;;;;17.61;43.01;97717.28;4441471;32;20070;-80
2023/04/23 04:44:47;;;;;;;12.77;5.93;;;;;;;17.56;44.90;97724.63;4441438;32;20219;-80
2023/04/23 04:47:15;;;;;;;10.82;5.60;;;;;;;17.77;45.49;97722.19;4441293;32;20112;-81
2023/04/23 04:49:42;;;;;;;12.48;5.95;;;;;;;18.05;45.28;97721.69;4441505;32;20416;-81
2023/04/23 04:52:09;;;;;;;11.52;5.80;;;;;;;17.88;46.12;97717.81;4441368;32;20089;-81
2023/04/23 04:54:36;;;;;;;10.70;5.57;;;;;;;18.49;45.65;97733.00;4440937;32;20098;-81
2023/04/23 04:57:03;;;;;;;10.25;5.43;;;;;;;18.05;46.75;97728.69;4440350;32;20167;-81
2023/04/23 04:59:30;;;;;;;9.68;4.87;;;;;;;19.01;45.28;97728.84;4441304;32;20146;-81
2023/04/23 05:01:56;;;;;;;10.40;5.20;;;;;;;20.37;42.43;97733.03;4441182;32;20104;-81
2023/04/23 05:04:23;;;;;;;11.10;5.30;;;;;;;21.12;39.96;97736.84;4441134;32;20086;-81
2023/04/23 05:06:50;;;;;;;10.00;4.87;;;;;;;21.58;39.19;97730.88;4441366;32;20100;-81
2023/04/23 05:09:17;;;;;;;10.38;4.85;;;;;;;22.29;38.20;97741.69;4440849;32;20084;-81
2023/04/23 05:11:44;;;;;;;11.60;5.80;;;;;;;23.11;37.02;97738.13;4441043;32;20077;-81
2023/04/23 05:14:11;;;;;;;10.57;5.70;;;;;;;23.46;35.04;97737.25;4441276;32;20108;-81
2023/04/23 05:16:38;;;;;;;9.75;5.20;;;;;;;24.48;34.04;97747.06;4440978;32;20086;-81
2023/04/23 05:19:05;;;;;;;11.15;5.60;;;;;;;25.20;33.54;97740.28;4441137;32;20107;-81
2023/04/23 05:21:32;;;;;;;10.90;5.80;;;;;;;25.55;32.97;97744.37;4441029;32;20100;-80
2023/04/23 05:23:59;;;;;;;10.45;5.53;;;;;;;23.52;36.95;97736.63;4441208;32;20102;-81
2023/04/23 05:26:26;;;;;;;13.48;5.95;;;;;;;24.30;36.76;97749.75;4441248;32;20423;-81
2023/04/23 05:28:53;;;;;;;11.65;5.80;;;;;;;25.46;33.51;97740.09;4440680;32;20146;-81
2023/04/23 05:31:20;;;;;;;9.55;5.55;;;;;;;24.52;33.22;97743.09;4441252;32;20069;-81
2023/04/23 05:33:47;;;;;;;12.27;6.50;;;;;;;26.04;32.67;97743.47;4441144;32;20094;-81
2023/04/23 05:36:16;;;;;;;11.18;5.68;;;;;;;26.17;32.13;97741.12;4440857;32;20378;-81
2023/04/23 05:38:43;;;;;;;11.07;5.60;;;;;;;26.75;32.21;97748.62;4441204;32;20150;-81
2023/04/23 05:41:10;;;;;;;10.40;5.78;;;;;;;27.39;31.53;97749.19;4441228;32;20073;-81
2023/04/23 05:43:37;;;;;;;10.05;5.85;;;;;;;27.71;30.32;97749.91;4440772;32;20112;-81
2023/04/23 05:46:06;;;;;;;11.38;5.87;;;;;;;26.78;31.71;97747.44;4440696;32;20093;-81
2023/04/23 05:48:33;;;;;;;11.98;6.60;;;;;;;27.08;31.68;97751.09;4441331;32;20085;-81
2023/04/23 05:51:00;;;;;;;11.50;6.62;;;;;;;24.66;35.48;97753.03;4432574;32;271994;-81
2023/04/23 05:53:27;;;;;;;12.57;7.50;;;;;;;25.49;34.69;97750.31;4441487;32;20159;-81
2023/04/23 05:55:54;;;;;;;11.73;6.87;;;;;;;26.63;33.40;97746.56;4441459;32;20146;-81
2023/04/23 05:58:22;;;;;;;12.02;6.57;;;;;;;26.48;34.45;97743.84;4441171;32;20460;-81
2023/04/23 06:00:49;;;;;;;13.62;7.40;;;;;;;27.03;33.55;97748.97;4441403;32;20492;-81
2023/04/23 06:03:16;;;;;;;14.20;6.90;;;;;;;27.80;31.52;97746.19;4441376;32;20109;-81
2023/04/23 06:05:43;;;;;;;12.55;6.60;;;;;;;27.65;31.59;97745.34;4441758;32;20163;-81
2023/04/23 06:08:10;;;;;;;14.93;7.15;;;;;;;27.11;32.40;97756.03;4441807;32;20337;-81
2023/04/23 06:10:37;;;;;;;13.32;6.90;;;;;;;27.05;32.23;97754.09;4441372;32;20090;-80
2023/04/23 06:13:04;;;;;;;13.35;7.10;;;;;;;26.93;33.94;97756.31;4441514;32;20097;-81
2023/04/23 06:15:31;;;;;;;13.45;7.37;;;;;;;26.22;34.06;97758.13;4441416;32;20115;-81
2023/04/23 06:17:58;;;;;;;14.38;8.13;;;;;;;24.91;36.44;97763.66;4440931;32;20407;-80
2023/04/23 06:20:25;;;;;;;14.18;7.25;;;;;;;25.01;37.13;97759.06;4441557;32;20137;-81
2023/04/23 06:22:52;;;;;;;13.15;7.62;;;;;;;24.89;37.22;97758.53;4441373;32;20112;-81
2023/04/23 06:25:19;;;;;;;14.07;7.57;;;;;;;25.66;36.08;97759.06;4441203;32;20097;-81
2023/04/23 06:27:46;;;;;;;13.88;7.93;;;;;;;25.42;36.56;97752.00;4441702;32;20138;-81
2023/04/23 06:30:13;;;;;;;15.98;8.00;;;;;;;24.49;38.52;97768.00;4442076;32;20054;-81
2023/04/23 06:32:40;;;;;;;13.95;6.90;;;;;;;25.96;35.14;97757.56;4441641;32;20105;-81
2023/04/23 06:35:07;;;;;;;16.92;7.50;;;;;;;25.99;33.59;97757.22;4441851;32;20109;-81
2023/04/23 06:37:34;;;;;;;13.68;7.43;;;;;;;27.07;32.40;97767.97;4442338;32;20076;-81
2023/04/23 06:40:01;;;;;;;12.88;7.07;;;;;;;27.03;32.81;97772.00;4441665;32;20090;-81
2023/04/23 06:42:28;;;;;;;14.90;8.20;;;;;;;25.55;35.33;97764.69;4441777;32;20109;-81
2023/04/23 06:44:58;;;;;;;18.35;8.57;;;;;;;24.04;37.73;97764.81;4441595;32;20089;-81
2023/04/23 06:47:25;;;;;;;15.88;7.78;;;;;;;23.75;39.09;97763.31;4441768;32;20085;-81
2023/04/23 06:49:52;;;;;;;15.10;7.50;;;;;;;23.67;36.92;97763.25;4442029;32;20108;-81
2023/04/23 06:52:18;;;;;;;14.55;7.95;;;;;;;24.12;35.98;97763.00;4441736;32;20175;-81
2023/04/23 06:54:45;;;;;;;14.10;7.55;;;;;;;23.47;36.42;97765.22;4442033;32;20416;-81
2023/04/23 06:57:12;;;;;;;12.40;6.50;;;;;;;24.21;36.44;97759.44;4441571;32;20081;-81
2023/04/23 06:59:39;;;;;;;11.93;6.60;;;;;;;25.66;33.00;97764.34;4439624;32;20082;-80
2023/04/23 07:02:06;;;;;;;11.32;5.32;;;;;;;26.73;30.42;97766.50;4440945;32;20086;-81
2023/04/23 07:04:33;;;;;;;10.20;4.72;;;;;;;26.26;26.26;97766.53;4439655;32;20120;-81
2023/04/23 07:07:00;;;;;;;8.73;4.43;;;;;;;27.01;24.67;97758.91;4440442;32;20150;-81
2023/04/23 07:09:27;;;;;;;10.98;4.72;;;;;;;27.56;25.34;97763.13;4441167;32;20085;-81
2023/04/23 07:11:54;;;;;;;9.75;4.20;;;;;;;27.22;23.91;97760.94;4440987;32;20109;-81
2023/04/23 07:14:21;;;;;;;11.75;4.50;;;;;;;27.12;23.60;97757.69;4440684;32;20101;-81
2023/04/23 07:16:48;;;;;;;9.25;4.35;;;;;;;25.95;26.23;97756.72;4441232;32;20124;-81
2023/04/23 07:19:15;;;;;;;8.80;4.30;;;;;;;26.16;24.74;97758.81;4440925;32;20154;-81
2023/04/23 07:21:42;;;;;;;11.82;4.45;;;;;;;25.90;24.63;97758.22;4440913;32;20093;-81
2023/04/23 07:24:10;;;;;;;9.60;4.93;;;;;;;26.30;24.33;97754.63;4440387;32;20151;-80
2023/04/23 07:26:36;;;;;;;10.45;4.50;;;;;;;25.62;25.40;97755.91;4440877;32;20081;-80
2023/04/23 07:29:09;;;;;;;11.52;4.87;;;;;;;25.77;24.50;97758.75;4440344;32;20081;-81
2023/04/23 07:31:36;;;;;;;10.65;4.60;;;;;;;25.54;26.18;97753.31;4440820;32;20152;-81
2023/04/23 07:34:03;;;;;;;11.60;4.80;;;;;;;25.85;26.24;97757.91;4439506;32;20113;-81
2023/04/23 07:36:30;;;;;;;10.23;4.60;;;;;;;26.20;27.21;97754.00;4440202;32;20099;-81
2023/04/23 07:38:57;;;;;;;9.77;4.45;;;;;;;26.26;24.57;97750.66;4440652;32;20081;-81
2023/04/23 07:41:24;;;;;;;9.65;4.25;;;;;;;25.74;25.19;97748.53;4441140;32;20089;-81
2023/04/23 07:43:51;;;;;;;9.18;4.37;;;;;;;25.88;24.34;97758.38;4440713;32;20089;-81
2023/04/23 07:46:18;;;;;;;12.07;4.50;;;;;;;25.92;24.98;97753.59;4441515;32;20088;-81
2023/04/23 07:48:45;;;;;;;11.70;4.47;;;;;;;25.26;24.64;97750.19;4440939;32;20054;-80
2023/04/23 07:51:12;;;;;;;12.45;4.50;;;;;;;24.70;26.68;97753.56;4441209;32;20112;-81
2023/04/23 07:53:40;;;;;;;8.52;3.95;;;;;;;25.22;26.30;97748.03;4440198;32;20106;-81
2023/04/23 07:56:06;;;;;;;10.05;4.53;;;;;;;25.12;25.02;97748.19;4440788;32;20519;-81
2023/04/23 07:58:34;;;;;;;10.90;4.80;;;;;;;25.11;25.38;97737.81;4441635;32;20077;-81
2023/04/23 08:01:01;;;;;;;10.05;4.50;;;;;;;24.76;24.98;97748.44;4441876;32;20112;-81
2023/04/23 08:03:28;;;;;;;10.30;4.20;;;;;;;24.42;25.62;97745.87;4441265;32;20167;-81
2023/04/23 08:05:56;;;;;;;12.75;4.75;;;;;;;24.67;25.51;97748.56;4441163;32;20424;-81
2023/04/23 08:08:23;;;;;;;9.02;4.12;;;;;;;24.66;25.54;97750.38;4441376;32;20080;-81
2023/04/23 08:10:50;;;;;;;9.57;4.57;;;;;;;24.17;24.80;97739.66;4443157;32;20097;-81
2023/04/23 08:13:16;;;;;;;9.43;4.07;;;;;;;24.61;25.96;97744.78;4443043;32;20155;-81
2023/04/23 08:15:43;;;;;;;9.52;4.37;;;;;;;25.19;24.13;97735.16;4444022;32;20077;-81
2023/04/23 08:18:11;;;;;;;12.57;4.72;;;;;;;24.34;24.99;97748.47;4443013;32;20108;-81
2023/04/23 08:20:38;;;;;;;10.38;4.37;;;;;;;25.15;25.66;97742.59;4442782;32;20101;-81
2023/04/23 08:23:06;;;;;;;12.57;4.53;;;;;;;25.67;25.71;97735.13;4442637;32;20167;-81
2023/04/23 08:25:33;;;;;;;10.30;4.62;;;;;;;25.81;25.09;97738.09;4440949;32;20089;-81
2023/04/23 08:28:00;;;;;;;10.55;4.68;;;;;;;26.86;24.65;97744.75;4442713;32;20425;-81
2023/04/23 08:30:27;;;;;;;8.65;4.40;;;;;;;26.76;24.52;97744.97;4442543;32;20085;-81
2023/04/23 08:32:54;;;;;;;9.77;4.35;;;;;;;26.33;24.50;97735.75;4443347;32;20085;-81
2023/04/23 08:35:22;;;;;;;9.65;4.45;;;;;;;26.27;23.18;97738.28;4443757;32;20085;-81
2023/04/23 08:37:49;;;;;;;9.25;4.40;;;;;;;25.97;25.67;97743.34;4444049;32;20569;-81
2023/04/23 08:40:16;;;;;;;8.18;4.30;;;;;;;25.48;23.52;97734.66;4444690;32;20065;-81
2023/04/23 08:42:48;;;;;;;11.50;4.03;;;;;;;25.53;23.66;97738.44;4443533;32;20117;-81
2023/04/23 08:45:15;;;;;;;10.27;4.35;;;;;;;25.92;23.65;97740.38;4443456;32;20104;-81
2023/04/23 08:47:43;;;;;;;11.27;4.43;;;;;;;25.43;24.70;97742.25;4443275;32;20074;-81
2023/04/23 08:50:12;;;;;;;9.15;4.07;;;;;;;26.42;23.85;97752.44;4442287;32;20460;-81
2023/04/23 08:52:50;;;;;;;11.18;4.05;;;;;;;26.04;23.19;97746.13;4430077;32;20094;-81
2023/04/23 08:55:17;;;;;;;10.95;4.25;;;;;;;24.66;21.80;97742.47;4430730;32;20084;-81
2023/04/23 08:57:45;;;;;;;9.27;4.40;;;;;;;24.69;23.01;97751.91;4443832;32;20463;-81
2023/04/23 09:00:13;;;;;;;8.88;4.20;;;;;;;25.18;24.51;97742.25;4444417;32;20155;-81
2023/04/23 09:02:42;;;;;;;11.12;4.40;;;;;;;25.56;25.72;97748.69;4441431;32;20151;-81
2023/04/23 09:05:11;;;;;;;8.25;4.15;;;;;;;24.21;24.78;97730.44;4441227;32;20101;-81
2023/04/23 09:07:39;;;;;;;10.88;4.32;;;;;;;24.45;23.75;97732.34;4440874;32;20086;-81
2023/04/23 09:10:07;;;;;;;9.43;4.25;;;;;;;25.05;23.99;97724.25;4441270;32;20089;-81
2023/04/23 09:12:35;;;;;;;8.32;3.60;;;;;;;24.71;22.95;97729.63;4441061;32;20430;-81
2023/04/23 09:15:09;;;;;;;9.40;3.90;;;;;;;25.40;22.61;97724.91;4441178;32;20146;-82
2023/04/23 09:17:42;;;;;;;9.52;4.10;;;;;;;24.84;22.89;97723.06;4441458;32;20100;-81
2023/04/23 09:20:10;;;;;;;8.43;3.83;;;;;;;24.87;24.11;97717.44;4441067;32;20645;-81
2023/04/23 09:22:51;;;;;;;11.65;4.40;;;;;;;24.69;24.70;97731.63;4440728;32;20086;-81
2023/04/23 09:25:22;;;;;;;9.80;4.20;;;;;;;24.90;23.85;97728.53;4441103;32;20100;-81
2023/04/23 09:27:51;;;;;;;9.40;4.15;;;;;;;24.35;24.13;97715.88;4441031;32;20100;-81
2023/04/23 09:30:18;;;;;;;8.85;4.12;;;;;;;24.32;24.70;97732.00;4441411;32;20129;-81
2023/04/23 09:32:46;;;;;;;8.27;3.85;;;;;;;24.47;23.90;97711.12;4441276;32;20126;-81
2023/04/23 09:35:15;;;;;;;9.73;4.68;;;;;;;23.95;24.45;97717.31;4439406;32;20092;-81
2023/04/23 09:37:47;;;;;;;10.30;4.15;;;;;;;24.63;24.68;97715.59;4441391;32;20421;-81
2023/04/23 09:40:16;;;;;;;8.07;3.75;;;;;;;24.01;24.68;97712.41;4441194;32;20098;-79
2023/04/23 09:42:48;;;;;;;9.32;4.07;;;;;;;24.04;25.02;97704.19;4441508;32;20093;-83
2023/04/23 09:45:16;;;;;;;9.82;3.97;;;;;;;24.20;23.34;97702.44;4451643;32;20087;-84
2023/04/23 09:47:56;;;;;;;10.45;4.30;;;;;;;24.66;24.58;97695.00;4442586;32;20147;-83
2023/04/23 09:50:39;;;;;;;11.68;3.65;;;;;;;24.34;25.39;97710.75;4441385;32;20109;-82
2023/04/23 09:53:08;;;;;;;8.60;4.50;;;;;;;25.32;23.03;97703.81;4441126;32;20149;-83
2023/04/23 09:55:37;;;;;;;12.00;3.53;;;;;;;24.83;23.29;97698.50;4440840;32;20077;-83
2023/04/23 09:58:10;;;;;;;11.40;4.25;;;;;;;25.02;23.99;97702.66;4441196;32;20104;-83
2023/04/23 10:00:37;;;;;;;10.20;4.50;;;;;;;25.83;22.91;97692.00;4440995;32;20513;-83
2023/04/23 10:03:11;;;;;;;8.57;3.90;;;;;;;25.49;24.13;97702.78;4440706;32;20139;-83
2023/04/23 10:05:40;;;;;;;9.43;3.90;;;;;;;25.16;24.20;97699.34;4440904;32;20089;-83
2023/04/23 10:08:12;;;;;;;10.07;3.95;;;;;;;25.32;22.42;97690.59;4427399;32;20097;-83
2023/04/23 10:10:39;;;;;;;10.43;4.03;;;;;;;25.75;23.49;97689.41;4439612;32;20101;-83
2023/04/23 10:13:27;;;;;;;7.18;3.40;;;;;;;25.51;24.25;97684.94;4440870;32;20109;-83
2023/04/23 10:15:55;;;;;;;8.35;3.83;;;;;;;25.71;25.17;97688.06;4440843;32;20167;-83
2023/04/23 10:18:36;;;;;;;10.68;3.83;;;;;;;25.11;25.06;97677.91;4428764;32;20125;-83
2023/04/23 10:21:04;;;;;;;9.23;3.80;;;;;;;25.12;23.58;97678.75;4441242;32;20109;-82
2023/04/23 10:23:33;;;;;;;8.77;3.97;;;;;;;25.88;23.54;97679.09;4443198;32;20132;-83
2023/04/23 10:26:00;;;;;;;11.35;4.37;;;;;;;26.54;22.52;97671.69;4430869;32;20057;-83
2023/04/23 10:28:30;;;;;;;10.50;3.87;;;;;;;26.85;22.53;97674.28;4431025;32;20104;-83
2023/04/23 10:30:58;;;;;;;9.18;4.05;;;;;;;26.47;23.18;97666.28;4429583;32;20160;-83
2023/04/23 10:33:25;;;;;;;9.70;4.18;;;;;;;26.53;25.86;97678.00;4429631;32;20172;-83
2023/04/23 10:36:01;;;;;;;9.40;4.05;;;;;;;25.80;23.54;97660.63;4444021;32;20089;-83
2023/04/23 10:38:29;;;;;;;8.02;3.80;;;;;;;25.46;24.45;97660.87;4446381;32;20081;-83
2023/04/23 10:40:57;;;;;;;10.43;4.07;;;;;;;25.13;25.23;97673.28;4445461;32;20726;-83
2023/04/23 10:43:24;;;;;;;8.20;3.62;;;;;;;26.12;24.45;97667.59;4443569;32;20116;-83
2023/04/23 10:45:52;;;;;;;8.35;4.18;;;;;;;25.95;23.52;97660.75;4441570;32;20076;-83
2023/04/23 10:48:20;;;;;;;10.05;3.65;;;;;;;25.77;24.56;97660.97;4440369;32;20432;-83
2023/04/23 10:50:57;;;;;;;8.90;4.00;;;;;;;26.53;22.92;97660.28;4446175;32;20089;-84
2023/04/23 10:53:44;;;;;;;7.12;3.50;;;;;;;25.46;23.77;97655.59;4435661;32;20113;-83
2023/04/23 10:56:11;;;;;;;10.48;3.53;;;;;;;25.14;25.51;97653.81;4450165;32;20089;-83
2023/04/23 10:58:51;;;;;;;9.18;3.60;;;;;;;25.37;23.66;97646.03;4450075;32;20061;-83
2023/04/23 11:01:20;;;;;;;11.05;3.85;;;;;;;25.01;24.56;97656.13;4451548;32;20062;-83
2023/04/23 11:03:47;;;;;;;6.93;3.25;;;;;;;25.04;24.60;97648.72;4450788;32;20069;-83
2023/04/23 11:06:40;;;;;;;7.72;3.78;;;;;;;25.44;24.86;97659.38;4449514;32;20088;-83
2023/04/23 11:09:35;;;;;;;9.93;3.90;;;;;;;25.07;25.42;97648.38;4449848;32;20062;-84
2023/04/23 11:12:09;;;;;;;10.13;3.70;;;;;;;25.22;25.25;97642.44;4448768;32;20070;-83
2023/04/23 11:14:42;;;;;;;9.60;3.58;;;;;;;25.55;23.18;97638.72;4447577;32;20077;-83
2023/04/23 11:17:13;;;;;;;7.30;3.37;;;;;;;25.90;23.57;97645.41;4450464;32;20110;-83
2023/04/23 11:19:41;;;;;;;8.70;4.07;;;;;;;25.43;24.87;97647.19;4450853;32;20050;-83
2023/04/23 11:22:17;;;;;;;8.90;3.67;;;;;;;;;;4450179;32;20789;-83
2023/04/23 11:24:45;;;;;;;6.93;3.20;;;;;;;25.82;23.45;97647.25;4447756;32;20116;-83
2023/04/23 11:27:17;;;;;;;8.68;3.55;;;;;;;25.76;24.97;97651.41;4446617;32;20092;-84
2023/04/23 11:29:53;;;;;;;9.20;3.70;;;;;;;25.59;25.16;97640.03;4448582;32;20062;-83
2023/04/23 11:32:20;;;;;;;7.70;3.42;;;;;;;25.85;23.85;97654.84;4436503;32;20070;-83